Time;durP1;ratioP1;P1;durP2;ratioP2;P2;SDS_P1;SDS_P2;PMS_P1;PMS_P2;Temp;Humidity;BMP_temperature;BMP_pressure;BME280_temperature;BME280_humidity;BME280_pressure;Samples;Min_cycle;Max_cycle;Signal;HPM_P1;HPM_P2
2022/04/09 00:01:02;;;;;;;33.50;4.97;;;2.20;99.90;;;;;;5033411;28;20057;-68
2022/04/09 00:03:27;;;;;;;33.97;4.43;;;2.10;99.90;;;;;;5033477;28;20091;-68
2022/04/09 00:05:53;;;;;;;41.08;5.13;;;2.10;99.90;;;;;;5015694;28;20089;-68
2022/04/09 00:08:18;;;;;;;22.45;4.40;;;2.10;99.90;;;;;;5033382;28;20026;-68
2022/04/09 00:10:44;;;;;;;46.38;5.28;;;2.00;99.90;;;;;;5033251;28;20069;-68
2022/04/09 00:13:10;;;;;;;32.65;4.32;;;1.90;99.90;;;;;;5015892;28;20434;-68
2022/04/09 00:15:36;;;;;;;38.95;4.63;;;1.80;99.90;;;;;;5034357;28;20335;-68
2022/04/09 00:18:02;;;;;;;42.15;4.93;;;1.90;99.90;;;;;;5033310;28;20087;-68
2022/04/09 00:20:28;;;;;;;39.67;7.75;;;1.90;99.90;;;;;;5015468;28;20022;-68
2022/04/09 00:22:54;;;;;;;28.75;4.00;;;1.90;99.90;;;;;;5033372;28;20405;-68
2022/04/09 00:25:24;;;;;;;26.98;4.53;;;1.90;99.90;;;;;;5033188;28;20079;-68
2022/04/09 00:27:51;;;;;;;27.75;5.03;;;1.90;99.90;;;;;;5015584;28;20026;-68
2022/04/09 00:30:17;;;;;;;36.95;4.93;;;2.00;99.90;;;;;;5033277;28;20026;-68
2022/04/09 00:32:42;;;;;;;27.88;4.10;;;2.10;99.90;;;;;;5033128;28;20056;-68
2022/04/09 00:35:08;;;;;;;32.28;5.30;;;2.10;99.90;;;;;;5033764;28;20113;-68
2022/04/09 00:37:45;;;;;;;18.35;3.97;;;2.20;99.90;;;;;;5015459;28;20034;-68
2022/04/09 00:40:12;;;;;;;31.77;4.72;;;2.20;99.90;;;;;;5034616;28;20061;-68
2022/04/09 00:42:40;;;;;;;22.73;4.55;;;2.30;99.90;;;;;;5037098;28;20389;-68
2022/04/09 00:45:08;;;;;;;25.48;4.65;;;2.20;99.90;;;;;;5036984;28;20025;-68
2022/04/09 00:47:35;;;;;;;32.13;4.65;;;2.20;99.90;;;;;;5036984;28;20025;-68
2022/04/09 00:50:01;;;;;;;24.40;4.80;;;2.20;99.90;;;;;;5036969;28;20025;-68
2022/04/09 00:52:27;;;;;;;31.40;4.57;;;2.20;99.90;;;;;;5036794;28;20112;-68
2022/04/09 00:54:55;;;;;;;34.55;5.65;;;2.30;99.90;;;;;;5037140;28;20026;-68
2022/04/09 00:57:25;;;;;;;26.25;5.32;;;2.30;99.90;;;;;;5036727;28;20053;-68
2022/04/09 00:59:52;;;;;;;27.83;5.68;;;2.30;99.90;;;;;;5036677;28;20502;-68
2022/04/09 01:02:18;;;;;;;35.72;7.88;;;2.30;99.90;;;;;;5036556;28;20045;-68
2022/04/09 01:04:45;;;;;;;29.13;4.70;;;2.40;99.90;;;;;;5036949;28;20095;-68
2022/04/09 01:07:12;;;;;;;31.75;4.95;;;2.40;99.90;;;;;;5037040;28;20028;-68
2022/04/09 01:09:37;;;;;;;45.72;5.80;;;2.50;99.90;;;;;;5036376;28;20037;-68
2022/04/09 01:12:04;;;;;;;27.33;4.05;;;2.50;99.90;;;;;;5036450;28;20094;-68
2022/04/09 01:14:30;;;;;;;32.88;4.57;;;2.50;99.90;;;;;;5036396;28;20382;-68
2022/04/09 01:16:56;;;;;;;24.98;5.25;;;2.50;99.90;;;;;;5036374;28;20022;-68
2022/04/09 01:19:22;;;;;;;25.05;4.10;;;2.60;99.90;;;;;;5036239;28;20095;-68
2022/04/09 01:21:47;;;;;;;32.58;4.20;;;2.60;99.90;;;;;;5036483;28;20021;-68
2022/04/09 01:24:13;;;;;;;25.52;3.95;;;2.60;99.90;;;;;;5036175;28;20031;-68
2022/04/09 01:26:38;;;;;;;39.97;4.82;;;2.60;99.90;;;;;;5018471;28;20045;-68
2022/04/09 01:29:04;;;;;;;46.22;5.05;;;2.60;99.90;;;;;;5036096;28;20462;-68
2022/04/09 01:31:30;;;;;;;46.25;4.65;;;2.60;99.90;;;;;;5036361;28;20021;-68
2022/04/09 01:33:55;;;;;;;36.08;4.28;;;2.60;99.90;;;;;;5036199;28;20033;-68
2022/04/09 01:36:21;;;;;;;26.15;4.13;;;2.70;99.90;;;;;;5035918;28;20030;-68
2022/04/09 01:38:46;;;;;;;24.05;4.22;;;2.70;99.90;;;;;;5035957;28;20036;-68
2022/04/09 01:41:12;;;;;;;32.50;5.18;;;2.80;99.90;;;;;;5036403;28;20100;-68
2022/04/09 01:43:40;;;;;;;37.17;4.68;;;2.80;99.90;;;;;;5035951;28;20037;-68
2022/04/09 01:46:06;;;;;;;33.58;4.10;;;2.80;99.90;;;;;;5035858;28;20018;-68
2022/04/09 01:48:32;;;;;;;24.55;4.95;;;2.80;99.90;;;;;;5035958;28;20029;-68
2022/04/09 01:50:57;;;;;;;30.42;4.13;;;2.80;99.90;;;;;;5035185;28;20045;-68
2022/04/09 01:53:23;;;;;;;31.42;3.88;;;2.80;99.90;;;;;;5035714;28;20037;-68
2022/04/09 01:55:49;;;;;;;28.63;3.50;;;2.80;99.90;;;;;;5035786;28;20060;-68
2022/04/09 01:58:14;;;;;;;37.28;4.95;;;2.80;99.90;;;;;;5035573;28;20088;-68
2022/04/09 02:00:40;;;;;;;30.23;4.20;;;2.80;99.90;;;;;;5035494;28;20029;-68
2022/04/09 02:03:06;;;;;;;33.33;4.93;;;2.80;99.90;;;;;;5035883;28;20504;-68
2022/04/09 02:05:31;;;;;;;36.00;3.60;;;2.80;99.90;;;;;;5035774;28;20022;-68
2022/04/09 02:07:58;;;;;;;41.60;4.00;;;2.70;99.90;;;;;;5035447;28;20112;-68
2022/04/09 02:10:23;;;;;;;27.90;5.15;;;2.70;99.90;;;;;;5035160;28;20041;-68
2022/04/09 02:12:49;;;;;;;28.40;4.32;;;2.70;99.90;;;;;;5035256;28;20500;-68
2022/04/09 02:15:16;;;;;;;33.38;4.80;;;2.70;99.90;;;;;;5035697;28;20378;-68
2022/04/09 02:17:43;;;;;;;30.40;5.38;;;2.70;99.90;;;;;;5035228;28;20032;-68
2022/04/09 02:20:13;;;;;;;35.60;4.43;;;2.80;99.90;;;;;;5035496;28;20026;-68
2022/04/09 02:22:44;;;;;;;30.70;3.63;;;2.80;99.90;;;;;;5035164;28;20087;-68
2022/04/09 02:25:15;;;;;;;36.30;3.88;;;2.90;99.90;;;;;;5035133;28;20025;-68
2022/04/09 02:27:41;;;;;;;31.63;4.18;;;2.90;99.90;;;;;;5035483;28;20018;-68
2022/04/09 02:30:08;;;;;;;19.88;4.03;;;2.90;99.90;;;;;;5034971;28;20021;-68
2022/04/09 02:32:49;;;;;;;31.33;3.80;;;3.00;99.90;;;;;;5034922;28;20036;-68
2022/04/09 02:35:15;;;;;;;36.30;5.03;;;3.00;99.90;;;;;;5035218;28;20028;-68
2022/04/09 02:37:41;;;;;;;27.92;4.03;;;3.00;99.90;;;;;;5034885;28;20111;-68
2022/04/09 02:40:08;;;;;;;35.67;4.20;;;3.10;99.90;;;;;;5034817;28;20057;-68
2022/04/09 02:42:37;;;;;;;31.90;4.65;;;3.30;99.90;;;;;;5034841;28;20029;-68
2022/04/09 02:45:04;;;;;;;32.05;3.53;;;3.50;99.90;;;;;;5035424;28;20013;-68
2022/04/09 02:47:30;;;;;;;15.85;2.92;;;3.40;99.90;;;;;;5017066;28;20030;-68
2022/04/09 02:49:56;;;;;;;11.43;2.38;;;3.30;99.90;;;;;;5034629;28;20049;-68
2022/04/09 02:52:21;;;;;;;19.67;2.72;;;3.20;99.90;;;;;;5034932;28;20021;-68
2022/04/09 02:54:47;;;;;;;17.77;2.42;;;3.00;99.90;;;;;;5034563;28;20437;-68
2022/04/09 02:57:13;;;;;;;10.57;2.42;;;3.00;99.90;;;;;;5034859;28;20025;-68
2022/04/09 02:59:38;;;;;;;14.82;2.45;;;2.90;99.90;;;;;;5034934;28;20026;-68
2022/04/09 03:02:04;;;;;;;16.30;2.67;;;2.90;99.90;;;;;;5034336;28;20104;-68
2022/04/09 03:04:29;;;;;;;17.58;2.63;;;2.90;99.90;;;;;;5034137;28;20022;-68
2022/04/09 03:06:56;;;;;;;10.75;2.75;;;2.90;99.90;;;;;;5034938;28;20044;-68
2022/04/09 03:09:22;;;;;;;23.05;2.80;;;2.90;99.90;;;;;;5034593;28;20116;-68
2022/04/09 03:11:48;;;;;;;25.08;2.92;;;3.00;99.90;;;;;;5034297;28;20052;-68
2022/04/09 03:14:13;;;;;;;24.88;3.20;;;3.00;99.90;;;;;;5034036;28;20030;-68
2022/04/09 03:16:39;;;;;;;22.00;4.10;;;2.90;99.90;;;;;;5034318;28;20438;-68
2022/04/09 03:19:04;;;;;;;17.90;5.65;;;2.90;99.90;;;;;;5016156;28;20037;-67
2022/04/09 03:21:30;;;;;;;18.55;2.60;;;2.70;99.90;;;;;;5034140;28;20021;-67
2022/04/09 03:23:55;;;;;;;21.13;3.00;;;2.70;99.90;;;;;;5033860;28;20388;-67
2022/04/09 03:26:21;;;;;;;13.88;2.80;;;2.70;99.90;;;;;;5033870;28;20482;-67
2022/04/09 03:28:47;;;;;;;19.88;2.20;;;2.60;99.90;;;;;;5034063;28;20536;-67
2022/04/09 03:31:12;;;;;;;20.65;2.53;;;2.50;99.90;;;;;;5033778;28;20017;-67
2022/04/09 03:33:38;;;;;;;15.85;2.92;;;2.40;99.90;;;;;;5033955;28;20394;-67
2022/04/09 03:36:04;;;;;;;20.02;1.77;;;2.30;99.90;;;;;;5034109;28;20033;-67
2022/04/09 03:38:29;;;;;;;21.02;2.25;;;2.30;99.90;;;;;;5033687;28;20389;-67
2022/04/09 03:40:55;;;;;;;18.05;2.40;;;2.40;99.90;;;;;;5033668;28;20140;-67
2022/04/09 03:43:20;;;;;;;18.48;2.47;;;2.30;99.90;;;;;;5033493;28;20025;-67
2022/04/09 03:45:46;;;;;;;22.98;2.65;;;2.40;99.90;;;;;;5033780;28;20024;-67
2022/04/09 03:48:11;;;;;;;28.02;3.03;;;2.40;99.90;;;;;;5033579;28;20030;-67
2022/04/09 03:50:37;;;;;;;12.48;2.30;;;2.30;99.90;;;;;;5033608;28;20025;-67
2022/04/09 03:53:03;;;;;;;26.08;4.28;;;2.30;99.90;;;;;;5016415;28;20025;-67
2022/04/09 03:55:29;;;;;;;15.13;3.13;;;2.40;99.90;;;;;;5033494;28;20060;-67
2022/04/09 03:57:58;;;;;;;25.70;3.03;;;2.40;99.90;;;;;;5034189;28;20026;-67
2022/04/09 04:00:24;;;;;;;25.42;2.78;;;2.30;99.90;;;;;;5033524;28;20099;-67
2022/04/09 04:02:50;;;;;;;26.63;3.28;;;2.30;99.90;;;;;;5033920;28;20029;-68
2022/04/09 04:05:16;;;;;;;31.48;3.20;;;2.30;99.90;;;;;;5033524;28;20056;-68
2022/04/09 04:07:46;;;;;;;25.02;3.58;;;2.40;99.90;;;;;;5033764;28;20053;-68
2022/04/09 04:10:12;;;;;;;15.70;2.80;;;2.40;99.90;;;;;;5033405;28;20448;-68
2022/04/09 04:12:42;;;;;;;17.50;3.15;;;2.40;99.90;;;;;;5033405;28;20386;-68
2022/04/09 04:15:09;;;;;;;26.48;3.63;;;2.50;99.90;;;;;;5035035;28;20060;-68
2022/04/09 04:17:44;;;;;;;34.15;4.32;;;2.50;99.90;;;;;;5037529;28;20044;-68
2022/04/09 04:20:11;;;;;;;19.40;2.40;;;2.60;99.90;;;;;;5037549;28;20030;-68
2022/04/09 04:22:37;;;;;;;28.58;4.15;;;2.60;99.90;;;;;;5037491;28;20381;-68
2022/04/09 04:25:06;;;;;;;37.80;3.40;;;2.70;99.90;;;;;;5037389;28;20075;-68
2022/04/09 04:27:32;;;;;;;19.70;2.63;;;2.70;99.90;;;;;;5037710;28;20026;-68
2022/04/09 04:29:59;;;;;;;18.35;2.67;;;2.80;99.90;;;;;;5037481;28;20025;-68
2022/04/09 04:32:26;;;;;;;14.55;2.42;;;2.80;99.90;;;;;;5037704;28;20025;-68
2022/04/09 04:34:51;;;;;;;8.95;2.47;;;2.80;99.90;;;;;;5037670;28;20478;-68
2022/04/09 04:37:17;;;;;;;26.60;2.58;;;2.90;99.90;;;;;;5037468;28;20037;-68
2022/04/09 04:39:43;;;;;;;18.83;2.78;;;2.90;99.90;;;;;;5037361;28;20029;-68
2022/04/09 04:42:08;;;;;;;23.25;3.40;;;2.90;99.90;;;;;;5037283;28;20044;-68
2022/04/09 04:44:34;;;;;;;25.85;3.75;;;2.90;99.90;;;;;;5037685;28;20471;-68
2022/04/09 04:46:59;;;;;;;19.77;3.45;;;2.90;99.90;;;;;;5037333;28;20470;-68
2022/04/09 04:49:25;;;;;;;28.50;3.17;;;3.00;99.90;;;;;;5037104;28;20033;-68
2022/04/09 04:51:51;;;;;;;14.82;2.70;;;3.10;99.90;;;;;;5037238;28;20033;-68
2022/04/09 04:54:16;;;;;;;21.75;2.95;;;3.10;99.90;;;;;;5036862;28;20119;-68
2022/04/09 04:56:42;;;;;;;21.23;2.88;;;3.20;99.90;;;;;;5037050;28;20040;-68
2022/04/09 04:59:08;;;;;;;26.48;2.85;;;3.20;99.90;;;;;;5036740;28;20022;-68
2022/04/09 05:01:37;;;;;;;114.22;41.38;;;3.10;99.90;;;;;;5036983;28;20057;-68
2022/04/09 05:04:03;;;;;;;36.28;17.17;;;3.00;99.90;;;;;;5036763;28;20021;-68
2022/04/09 05:06:29;;;;;;;26.58;8.32;;;3.00;99.90;;;;;;5036894;28;20018;-68
2022/04/09 05:08:55;;;;;;;20.10;6.28;;;3.00;99.90;;;;;;5036817;28;20028;-68
2022/04/09 05:11:21;;;;;;;28.50;12.60;;;3.00;99.90;;;;;;5037325;28;20364;-67
2022/04/09 05:13:47;;;;;;;39.85;16.15;;;3.10;99.90;;;;;;5036615;28;20049;-67
2022/04/09 05:16:12;;;;;;;67.35;30.80;;;3.10;99.90;;;;;;5036440;28;20079;-66
2022/04/09 05:18:38;;;;;;;22.88;6.32;;;3.10;99.90;;;;;;5036186;28;20033;-66
2022/04/09 05:21:04;;;;;;;17.27;3.40;;;3.20;99.90;;;;;;5036166;28;20030;-66
2022/04/09 05:23:29;;;;;;;10.38;2.58;;;3.10;99.90;;;;;;5036045;28;20469;-66
2022/04/09 05:25:55;;;;;;;15.07;3.22;;;3.20;99.90;;;;;;5035987;28;20449;-66
2022/04/09 05:28:20;;;;;;;21.85;3.85;;;3.20;99.90;;;;;;5036061;28;20022;-67
2022/04/09 05:30:46;;;;;;;19.25;4.68;;;3.10;99.90;;;;;;5036340;28;20084;-66
2022/04/09 05:33:12;;;;;;;30.80;4.80;;;3.20;99.90;;;;;;5036032;28;20060;-66
2022/04/09 05:35:37;;;;;;;27.15;3.30;;;3.20;99.90;;;;;;5035985;28;20040;-66
2022/04/09 05:38:03;;;;;;;20.25;3.05;;;3.30;99.90;;;;;;5035901;28;20033;-66
2022/04/09 05:40:29;;;;;;;26.17;3.65;;;3.30;99.90;;;;;;5035728;28;20045;-67
2022/04/09 05:42:55;;;;;;;34.53;4.78;;;3.30;99.90;;;;;;5035833;28;20120;-67
2022/04/09 05:45:21;;;;;;;18.75;3.28;;;3.50;99.90;;;;;;5035783;28;20021;-66
2022/04/09 05:47:47;;;;;;;20.02;2.95;;;3.50;99.90;;;;;;5036001;28;20496;-66
2022/04/09 05:50:14;;;;;;;24.67;4.20;;;3.40;99.90;;;;;;5035589;28;20152;-67
2022/04/09 05:52:41;;;;;;;44.50;8.65;;;3.40;99.90;;;;;;5035631;28;20021;-66
2022/04/09 05:55:07;;;;;;;24.48;4.35;;;3.40;99.90;;;;;;5035829;28;20029;-66
2022/04/09 05:57:34;;;;;;;29.85;3.65;;;3.30;99.90;;;;;;5035481;28;20120;-66
2022/04/09 05:59:59;;;;;;;34.38;5.65;;;3.30;99.90;;;;;;5035388;28;20030;-67
2022/04/09 06:02:25;;;;;;;27.13;4.32;;;3.20;99.90;;;;;;5035592;28;20079;-67
2022/04/09 06:04:51;;;;;;;25.15;4.30;;;3.10;99.90;;;;;;5035425;28;20068;-67
2022/04/09 06:07:17;;;;;;;27.13;4.07;;;3.20;99.90;;;;;;5035569;28;20528;-67
2022/04/09 06:09:43;;;;;;;21.90;5.22;;;3.20;99.90;;;;;;5035200;28;20390;-67
2022/04/09 06:12:10;;;;;;;17.15;4.13;;;3.30;99.90;;;;;;5035207;28;20028;-67
2022/04/09 06:14:36;;;;;;;13.02;3.42;;;3.30;99.90;;;;;;5035233;28;20097;-67
2022/04/09 06:17:02;;;;;;;18.63;3.58;;;3.30;99.90;;;;;;5035105;28;20056;-67
2022/04/09 06:19:29;;;;;;;23.70;3.85;;;3.30;99.90;;;;;;5035013;28;20021;-67
2022/04/09 06:21:55;;;;;;;25.25;5.45;;;3.20;99.90;;;;;;5035037;28;20109;-67
2022/04/09 06:24:20;;;;;;;31.77;5.70;;;3.20;99.90;;;;;;5034960;28;20113;-67
2022/04/09 06:26:46;;;;;;;16.23;2.60;;;3.20;99.90;;;;;;5034939;28;20075;-67
2022/04/09 06:29:11;;;;;;;13.90;2.80;;;3.20;99.90;;;;;;5035356;28;20075;-67
2022/04/09 06:31:37;;;;;;;12.10;2.75;;;3.20;99.90;;;;;;5035346;28;20017;-67
2022/04/09 06:34:02;;;;;;;13.60;2.80;;;3.50;99.90;;;;;;5035118;28;20108;-67
2022/04/09 06:36:28;;;;;;;19.88;3.05;;;3.70;99.90;;;;;;5034863;28;20100;-67
2022/04/09 06:38:54;;;;;;;26.70;3.58;;;3.90;99.90;;;;;;5034071;28;20029;-67
2022/04/09 06:41:20;;;;;;;15.73;2.83;;;4.00;99.90;;;;;;5034651;28;20535;-67
2022/04/09 06:43:46;;;;;;;15.27;2.67;;;4.20;99.90;;;;;;5034815;28;20034;-67
2022/04/09 06:46:12;;;;;;;21.20;3.63;;;4.40;99.90;;;;;;5034587;28;20398;-67
2022/04/09 06:48:38;;;;;;;28.98;4.63;;;4.50;99.90;;;;;;5034956;28;20018;-67
2022/04/09 06:51:03;;;;;;;29.05;7.10;;;4.60;99.90;;;;;;5034508;28;20029;-67
2022/04/09 06:53:29;;;;;;;29.25;6.97;;;4.70;99.90;;;;;;5035152;28;20022;-67
2022/04/09 06:55:55;;;;;;;25.92;4.40;;;4.80;99.90;;;;;;5034431;28;20032;-67
2022/04/09 06:58:21;;;;;;;30.40;11.90;;;4.90;99.90;;;;;;5034459;28;20029;-67
2022/04/09 07:00:46;;;;;;;19.20;4.38;;;5.10;99.90;;;;;;5034338;28;20033;-67
2022/04/09 07:03:13;;;;;;;23.95;7.03;;;5.20;99.90;;;;;;5034487;28;20037;-67
2022/04/09 07:05:40;;;;;;;21.20;3.60;;;5.30;99.90;;;;;;5034287;28;20029;-67
2022/04/09 07:08:07;;;;;;;17.00;4.32;;;5.40;99.90;;;;;;5034251;28;20371;-67
2022/04/09 07:10:34;;;;;;;21.83;3.15;;;5.50;99.90;;;;;;5034079;28;20029;-67
2022/04/09 07:12:59;;;;;;;25.83;5.57;;;5.60;99.90;;;;;;5034643;28;20022;-67
2022/04/09 07:15:25;;;;;;;22.25;7.80;;;5.50;99.90;;;;;;5034032;28;20032;-67
2022/04/09 07:17:51;;;;;;;27.05;4.10;;;5.30;99.90;;;;;;5034003;28;20025;-67
2022/04/09 07:20:16;;;;;;;16.33;3.97;;;5.20;99.90;;;;;;5034205;28;20018;-67
2022/04/09 07:22:42;;;;;;;23.02;5.13;;;5.10;99.90;;;;;;5034113;28;20508;-67
2022/04/09 07:25:09;;;;;;;26.92;3.50;;;5.20;99.90;;;;;;5033987;28;20029;-67
2022/04/09 07:27:36;;;;;;;20.55;3.08;;;5.40;99.90;;;;;;5034261;28;20030;-67
2022/04/09 07:30:06;;;;;;;17.00;2.25;;;5.40;99.90;;;;;;5033833;28;20040;-67
2022/04/09 07:32:32;;;;;;;29.52;3.50;;;5.30;99.90;;;;;;5033811;28;20029;-67
2022/04/09 07:34:58;;;;;;;14.57;4.28;;;5.30;99.90;;;;;;5033807;28;20048;-67
2022/04/09 07:37:23;;;;;;;19.80;5.57;;;5.20;99.90;;;;;;5034016;28;20029;-67
2022/04/09 07:39:49;;;;;;;23.73;4.13;;;5.20;99.90;;;;;;5033647;28;20056;-67
2022/04/09 07:42:14;;;;;;;24.73;10.50;;;5.50;99.90;;;;;;5034076;28;20021;-67
2022/04/09 07:44:40;;;;;;;27.38;3.90;;;5.70;99.90;;;;;;5033601;28;20021;-67
2022/04/09 07:47:05;;;;;;;33.53;10.45;;;5.90;99.90;;;;;;5033519;28;20470;-67
2022/04/09 07:49:31;;;;;;;37.10;6.60;;;6.10;99.90;;;;;;5032596;28;20030;-67
2022/04/09 07:51:56;;;;;;;29.75;3.53;;;6.30;99.90;;;;;;5033894;28;20072;-67
2022/04/09 07:54:24;;;;;;;30.02;4.53;;;6.10;99.90;;;;;;5034080;28;20446;-67
2022/04/09 07:56:49;;;;;;;30.55;7.25;;;6.00;99.90;;;;;;5033632;28;20489;-67
2022/04/09 07:59:15;;;;;;;20.90;4.00;;;5.80;99.90;;;;;;5033170;28;20029;-67
2022/04/09 08:01:41;;;;;;;23.65;3.88;;;5.70;99.90;;;;;;5033527;28;20537;-67
2022/04/09 08:04:06;;;;;;;13.10;2.78;;;5.60;99.90;;;;;;5033275;28;20029;-67
2022/04/09 08:06:32;;;;;;;24.08;3.00;;;5.40;99.90;;;;;;5033387;28;20108;-67
2022/04/09 08:08:58;;;;;;;16.45;2.92;;;5.70;99.90;;;;;;5033478;28;20025;-67
2022/04/09 08:11:23;;;;;;;19.58;2.88;;;6.10;99.90;;;;;;5033597;28;20141;-67
2022/04/09 08:13:49;;;;;;;24.25;3.70;;;6.30;99.90;;;;;;5033240;28;20037;-67
2022/04/09 08:16:14;;;;;;;28.90;4.10;;;6.30;99.90;;;;;;5033316;28;20025;-67
2022/04/09 08:18:40;;;;;;;17.77;2.97;;;6.20;99.90;;;;;;5033437;28;20025;-67
2022/04/09 08:21:06;;;;;;;27.00;3.13;;;6.20;99.90;;;;;;5033458;28;20053;-67
2022/04/09 08:23:33;;;;;;;18.48;3.00;;;6.50;99.90;;;;;;5033145;28;20025;-67
2022/04/09 08:26:00;;;;;;;18.58;3.45;;;6.60;99.90;;;;;;5033411;28;20076;-67
2022/04/09 08:28:30;;;;;;;25.95;3.80;;;6.80;99.90;;;;;;5033046;28;20022;-67
2022/04/09 08:30:55;;;;;;;27.63;4.47;;;7.00;99.90;;;;;;5033386;28;20014;-66
2022/04/09 08:33:21;;;;;;;34.53;9.20;;;6.90;99.90;;;;;;5033235;28;20032;-66
2022/04/09 08:35:47;;;;;;;12.38;3.00;;;6.90;99.90;;;;;;5033221;28;20151;-66
2022/04/09 08:38:13;;;;;;;8.38;2.05;;;6.10;99.90;;;;;;5033082;28;20072;-66
2022/04/09 08:40:40;;;;;;;8.30;1.80;;;5.10;99.90;;;;;;5032949;28;20433;-66
2022/04/09 08:43:07;;;;;;;13.38;2.85;;;4.50;99.90;;;;;;5032938;28;20061;-66
2022/04/09 08:45:36;;;;;;;14.18;2.80;;;4.10;99.90;;;;;;5033000;28;20036;-66
2022/04/09 08:48:03;;;;;;;25.42;5.60;;;4.10;99.90;;;;;;5033828;28;20419;-66
2022/04/09 08:50:29;;;;;;;19.65;4.70;;;4.00;99.90;;;;;;5033328;28;20017;-66
2022/04/09 08:52:55;;;;;;;37.47;27.48;;;4.20;99.90;;;;;;5033351;28;20454;-66
2022/04/09 08:55:20;;;;;;;15.90;4.05;;;4.60;99.90;;;;;;5033464;28;20033;-66
2022/04/09 08:57:48;;;;;;;27.13;4.65;;;5.30;99.90;;;;;;5033051;28;20026;-66
2022/04/09 09:00:17;;;;;;;25.13;3.85;;;5.80;99.90;;;;;;5033075;28;20032;-66
2022/04/09 09:02:50;;;;;;;10.50;2.60;;;5.70;99.90;;;;;;5036464;28;20104;-66
2022/04/09 09:05:35;;;;;;;7.97;1.92;;;5.10;99.90;;;;;;5036572;28;20026;-66
2022/04/09 09:08:02;;;;;;;10.50;1.85;;;4.40;99.90;;;;;;5019244;28;20088;-66
2022/04/09 09:10:28;;;;;;;13.40;2.15;;;4.30;99.90;;;;;;5036283;28;20029;-66
2022/04/09 09:13:05;;;;;;;10.65;1.75;;;4.20;99.90;;;;;;5036671;28;20036;-66
2022/04/09 09:15:43;;;;;;;7.10;1.80;;;4.50;99.90;;;;;;5036358;28;20079;-66
2022/04/09 09:18:18;;;;;;;8.90;1.77;;;4.90;99.90;;;;;;5036649;28;20038;-66
2022/04/09 09:20:49;;;;;;;12.55;2.25;;;5.20;99.90;;;;;;5036258;28;20509;-67
2022/04/09 09:23:27;;;;;;;22.63;3.00;;;5.60;99.90;;;;;;5036382;28;20033;-66
2022/04/09 09:25:57;;;;;;;15.95;3.40;;;5.80;99.90;;;;;;5036256;28;20540;-66
2022/04/09 09:28:31;;;;;;;13.43;2.08;;;6.00;99.90;;;;;;5036093;28;20533;-67
2022/04/09 09:30:58;;;;;;;15.93;2.10;;;6.30;99.90;;;;;;5036683;28;20026;-67
2022/04/09 09:33:25;;;;;;;19.95;2.88;;;6.60;99.90;;;;;;5036296;28;20041;-67
2022/04/09 09:35:53;;;;;;;15.60;2.20;;;6.80;99.90;;;;;;5035951;28;20553;-67
2022/04/09 09:38:24;;;;;;;25.73;2.80;;;7.00;99.90;;;;;;5035906;28;20033;-66
2022/04/09 09:40:50;;;;;;;30.30;4.53;;;7.00;99.90;;;;;;5036179;28;20148;-67
2022/04/09 09:43:21;;;;;;;22.48;3.10;;;7.10;99.90;;;;;;5018030;28;20083;-67
2022/04/09 09:45:48;;;;;;;14.32;2.53;;;7.30;99.90;;;;;;5036108;28;20029;-67
2022/04/09 09:48:20;;;;;;;20.73;3.83;;;7.00;99.90;;;;;;5035971;28;20036;-66
2022/04/09 09:50:46;;;;;;;20.10;2.90;;;6.60;99.90;;;;;;5035679;28;20018;-66
2022/04/09 09:53:11;;;;;;;14.88;3.67;;;6.30;99.90;;;;;;5035603;28;20105;-67
2022/04/09 09:55:44;;;;;;;23.13;3.33;;;6.20;99.90;;;;;;5035564;28;20385;-67
2022/04/09 09:58:16;;;;;;;21.08;2.83;;;6.50;99.90;;;;;;5035811;28;20032;-66
2022/04/09 10:00:43;;;;;;;18.45;3.00;;;7.00;99.90;;;;;;5035456;28;20036;-67
2022/04/09 10:03:14;;;;;;;19.48;2.72;;;7.30;99.90;;;;;;5035363;28;20056;-66
2022/04/09 10:05:40;;;;;;;19.95;3.13;;;7.00;99.90;;;;;;5035486;28;20492;-66
2022/04/09 10:08:07;;;;;;;25.85;2.65;;;5.60;99.90;;;;;;5035885;28;20463;-66
2022/04/09 10:10:37;;;;;;;33.83;3.83;;;4.80;99.90;;;;;;5035173;28;20033;-67
2022/04/09 10:13:04;;;;;;;35.88;4.50;;;4.60;99.90;;;;;;5034576;28;20033;-66
2022/04/09 10:15:31;;;;;;;30.85;3.90;;;4.70;99.90;;;;;;5035240;28;20030;-66
2022/04/09 10:17:58;;;;;;;24.35;3.58;;;4.80;99.90;;;;;;5035209;28;20029;-67
2022/04/09 10:20:29;;;;;;;33.10;5.38;;;4.90;99.90;;;;;;5017334;28;20053;-67
2022/04/09 10:23:02;;;;;;;36.38;4.70;;;5.00;99.90;;;;;;5034990;28;20033;-67
2022/04/09 10:25:30;;;;;;;25.20;4.72;;;5.30;99.90;;;;;;5035085;28;20048;-67
2022/04/09 10:28:00;;;;;;;24.20;4.25;;;5.60;99.90;;;;;;5035066;28;20411;-67
2022/04/09 10:30:26;;;;;;;46.85;5.72;;;5.80;99.90;;;;;;5035122;28;20142;-67
2022/04/09 10:32:57;;;;;;;36.55;5.53;;;6.10;99.90;;;;;;5035172;28;20206;-67
2022/04/09 10:35:38;;;;;;;35.70;5.93;;;6.70;99.90;;;;;;5034991;28;20029;-67
2022/04/09 10:38:06;;;;;;;50.35;5.55;;;6.90;99.90;;;;;;5035072;28;20104;-67
2022/04/09 10:40:55;;;;;;;39.80;5.18;;;7.20;99.90;;;;;;5034680;28;20034;-67
2022/04/09 10:43:26;;;;;;;50.67;5.88;;;7.10;99.90;;;;;;4995318;28;20033;-66
2022/04/09 10:46:00;;;;;;;16.67;3.47;;;7.30;99.90;;;;;;5035173;28;20029;-67
2022/04/09 10:48:37;;;;;;;28.27;4.93;;;6.50;99.90;;;;;;5034551;28;20018;-67
2022/04/09 10:51:08;;;;;;;22.77;3.35;;;5.70;99.90;;;;;;5034795;28;20025;-67
2022/04/09 10:53:44;;;;;;;21.75;3.22;;;5.40;99.90;;;;;;5034561;28;20585;-67
2022/04/09 10:56:29;;;;;;;22.52;4.00;;;5.20;99.90;;;;;;5034454;28;20029;-67
2022/04/09 10:59:08;;;;;;;18.30;3.45;;;5.10;99.90;;;;;;5034586;28;20021;-67
2022/04/09 11:01:51;;;;;;;34.95;4.75;;;5.00;99.90;;;;;;5034305;28;20109;-67
2022/04/09 11:04:43;;;;;;;32.05;4.70;;;5.20;99.90;;;;;;5034282;28;20025;-67
2022/04/09 11:07:19;;;;;;;39.25;3.97;;;5.30;99.90;;;;;;5030842;28;20029;-67
2022/04/09 11:09:44;;;;;;;30.30;4.72;;;5.50;99.90;;;;;;5033949;28;20505;-67
2022/04/09 11:12:11;;;;;;;26.98;4.18;;;5.60;99.90;;;;;;5034707;28;20029;-67
2022/04/09 11:14:52;;;;;;;26.58;4.45;;;5.80;99.90;;;;;;5034240;28;20084;-67
2022/04/09 11:17:19;;;;;;;32.20;4.85;;;6.20;99.90;;;;;;5034612;28;20105;-67
2022/04/09 11:19:46;;;;;;;37.65;6.07;;;6.40;99.90;;;;;;5033895;28;20026;-67
2022/04/09 11:22:12;;;;;;;47.22;6.15;;;6.80;99.90;;;;;;5033971;28;20075;-67
2022/04/09 11:24:41;;;;;;;29.65;6.65;;;7.30;99.90;;;;;;5033680;28;20037;-67
2022/04/09 11:27:07;;;;;;;39.33;5.60;;;7.30;99.90;;;;;;5033874;28;20017;-67
2022/04/09 11:29:36;;;;;;;31.10;6.00;;;7.40;99.90;;;;;;5033903;28;20026;-67
2022/04/09 11:32:03;;;;;;;32.42;5.32;;;7.60;99.90;;;;;;5034150;28;20055;-67
2022/04/09 11:34:49;;;;;;;37.83;6.40;;;8.00;99.90;;;;;;5033767;28;20029;-67
2022/04/09 11:37:15;;;;;;;30.85;5.22;;;8.20;99.90;;;;;;5033767;28;20063;-67
2022/04/09 11:39:43;;;;;;;39.25;5.00;;;7.80;99.90;;;;;;5033722;28;20404;-67
2022/04/09 11:42:10;;;;;;;32.55;4.15;;;7.40;99.90;;;;;;5033697;28;20389;-67
2022/04/09 11:44:38;;;;;;;31.50;4.38;;;7.00;99.90;;;;;;5015874;28;20025;-67
2022/04/09 11:47:14;;;;;;;37.45;5.90;;;7.00;99.90;;;;;;5033544;28;20478;-67
2022/04/09 11:49:41;;;;;;;25.58;4.22;;;7.00;99.90;;;;;;5033490;28;20156;-66
2022/04/09 11:52:08;;;;;;;19.13;4.13;;;7.40;99.90;;;;;;5033772;28;20512;-66
2022/04/09 11:54:36;;;;;;;20.70;3.47;;;8.00;99.90;;;;;;5033731;28;20033;-67
2022/04/09 11:57:03;;;;;;;16.77;3.25;;;8.20;99.90;;;;;;5033484;28;20056;-66
2022/04/09 11:59:31;;;;;;;25.90;3.50;;;8.20;99.90;;;;;;5033355;28;20017;-66
2022/04/09 12:01:58;;;;;;;27.60;4.57;;;8.20;99.90;;;;;;5034061;28;20053;-66
2022/04/09 12:04:32;;;;;;;28.77;4.65;;;8.40;99.90;;;;;;5033258;28;20486;-66
2022/04/09 12:06:57;;;;;;;;;;;8.70;99.90;;;;;;5034339;28;20378;-66
2022/04/09 12:09:24;;;;;;;24.98;4.30;;;9.10;99.90;;;;;;5033304;28;20004;-66
2022/04/09 12:11:53;;;;;;;25.85;4.47;;;8.70;99.90;;;;;;5033248;28;20028;-66
2022/04/09 12:14:20;;;;;;;21.65;4.18;;;8.70;99.90;;;;;;5033498;28;20540;-66
2022/04/09 12:16:46;;;;;;;30.65;4.18;;;9.00;99.90;;;;;;5033702;28;20033;-66
2022/04/09 12:19:12;;;;;;;29.17;5.28;;;8.60;99.90;;;;;;5033121;28;20112;-66
2022/04/09 12:21:38;;;;;;;25.30;4.53;;;8.10;99.90;;;;;;5033166;28;20068;-66
2022/04/09 12:24:09;;;;;;;29.98;6.03;;;8.50;99.90;;;;;;5033112;28;20068;-66
2022/04/09 12:26:38;;;;;;;29.00;5.43;;;8.40;99.90;;;;;;5033108;28;20079;-66
2022/04/09 12:29:26;;;;;;;32.53;5.18;;;8.10;99.90;;;;;;5033028;28;20059;-66
2022/04/09 12:32:12;;;;;;;27.73;4.63;;;7.70;99.90;;;;;;5033435;28;20022;-66
2022/04/09 12:34:57;;;;;;;31.20;5.20;;;7.40;99.90;;;;;;5015422;28;20061;-66
2022/04/09 12:37:24;;;;;;;20.27;2.55;;;7.10;99.90;;;;;;5036495;28;20067;-66
2022/04/09 12:39:50;;;;;;;26.70;3.72;;;5.90;99.90;;;;;;5037055;28;20113;-66
2022/04/09 12:42:27;;;;;;;34.17;4.13;;;4.90;99.90;;;;;;5037226;28;20097;-66
2022/04/09 12:45:12;;;;;;;33.22;4.18;;;4.60;99.90;;;;;;5036948;28;20030;-66
2022/04/09 12:47:38;;;;;;;18.73;3.65;;;5.30;99.90;;;;;;5037127;28;20026;-66
2022/04/09 12:50:04;;;;;;;19.60;3.78;;;6.00;99.90;;;;;;5036757;28;20044;-66